Maldives Meteorological Service

TAFS

Station TAF
VRMM
VRMM 231100Z 2312/2418 26009KT 9999 FEW018 TEMPO 2315/2321 5000 -SHRA FEW018CB=
VRMH
VRMH 231100Z 2312/2412 27010KT 9999 FEW017 TEMPO 2312/2318 3000 TSRA FEW017CB=
VRMK
VRMK 231100Z 2312/2412 23005KT 9999 FEW018 TEMPO 2312/2218 FEW018CB=
VRMT
VRMT 231100Z 2312/2412 24006KT 9999 FEW018 TEMPO 2315/2321 6000 –SHRA FEW018CB=
VRMG
VRMG 231100Z 2312/2418 23007KT 9999 FEW018 TEMPO 2312/2318 5000 -TSRA FEW018CB=